sensor_id;sensor_type;location;lat;lon;timestamp;P1;durP1;ratioP1;P2;durP2;ratioP2
8502;SDS011;4289;48.664;12.700;2022-10-23T00:00:43;0.10;;;0.10;;
8502;SDS011;4289;48.664;12.700;2022-10-23T00:04:09;0.00;;;0.00;;
8502;SDS011;4289;48.664;12.700;2022-10-23T00:07:33;0.00;;;0.00;;
8502;SDS011;4289;48.664;12.700;2022-10-23T00:10:55;0.10;;;0.10;;
8502;SDS011;4289;48.664;12.700;2022-10-23T00:14:18;0.00;;;0.00;;
8502;SDS011;4289;48.664;12.700;2022-10-23T00:17:42;0.00;;;0.00;;
8502;SDS011;4289;48.664;12.700;2022-10-23T00:21:06;0.00;;;0.00;;
8502;SDS011;4289;48.664;12.700;2022-10-23T00:24:30;0.10;;;0.10;;
8502;SDS011;4289;48.664;12.700;2022-10-23T00:27:52;0.03;;;0.03;;
8502;SDS011;4289;48.664;12.700;2022-10-23T00:31:15;0.00;;;0.00;;
8502;SDS011;4289;48.664;12.700;2022-10-23T00:34:37;0.00;;;0.00;;
8502;SDS011;4289;48.664;12.700;2022-10-23T00:38:01;0.00;;;0.00;;
8502;SDS011;4289;48.664;12.700;2022-10-23T00:41:25;0.00;;;0.00;;
8502;SDS011;4289;48.664;12.700;2022-10-23T00:48:32;0.10;;;0.10;;
8502;SDS011;4289;48.664;12.700;2022-10-23T00:51:55;0.10;;;0.10;;
8502;SDS011;4289;48.664;12.700;2022-10-23T00:55:21;0.03;;;0.03;;
8502;SDS011;4289;48.664;12.700;2022-10-23T00:58:44;0.00;;;0.00;;
8502;SDS011;4289;48.664;12.700;2022-10-23T01:02:07;0.00;;;0.00;;
8502;SDS011;4289;48.664;12.700;2022-10-23T01:05:30;0.00;;;0.00;;
8502;SDS011;4289;48.664;12.700;2022-10-23T01:08:57;0.00;;;0.00;;
8502;SDS011;4289;48.664;12.700;2022-10-23T01:12:27;0.03;;;0.03;;
8502;SDS011;4289;48.664;12.700;2022-10-23T01:15:57;0.10;;;0.10;;
8502;SDS011;4289;48.664;12.700;2022-10-23T01:19:26;0.00;;;0.00;;
8502;SDS011;4289;48.664;12.700;2022-10-23T01:23:03;0.00;;;0.00;;
8502;SDS011;4289;48.664;12.700;2022-10-23T01:30:32;0.10;;;0.10;;
8502;SDS011;4289;48.664;12.700;2022-10-23T01:33:56;0.00;;;0.00;;
8502;SDS011;4289;48.664;12.700;2022-10-23T01:37:22;0.00;;;0.00;;
8502;SDS011;4289;48.664;12.700;2022-10-23T01:40:47;0.10;;;0.10;;
8502;SDS011;4289;48.664;12.700;2022-10-23T01:44:13;0.00;;;0.00;;
8502;SDS011;4289;48.664;12.700;2022-10-23T01:47:40;0.00;;;0.00;;
8502;SDS011;4289;48.664;12.700;2022-10-23T01:51:03;0.00;;;0.00;;
8502;SDS011;4289;48.664;12.700;2022-10-23T01:54:28;0.00;;;0.00;;
8502;SDS011;4289;48.664;12.700;2022-10-23T01:57:53;0.00;;;0.00;;
8502;SDS011;4289;48.664;12.700;2022-10-23T02:01:17;0.07;;;0.07;;
8502;SDS011;4289;48.664;12.700;2022-10-23T02:04:44;0.00;;;0.00;;
8502;SDS011;4289;48.664;12.700;2022-10-23T02:08:08;0.00;;;0.00;;
8502;SDS011;4289;48.664;12.700;2022-10-23T02:11:30;0.00;;;0.00;;
8502;SDS011;4289;48.664;12.700;2022-10-23T02:14:56;0.00;;;0.00;;
8502;SDS011;4289;48.664;12.700;2022-10-23T02:18:23;0.00;;;0.00;;
8502;SDS011;4289;48.664;12.700;2022-10-23T02:21:52;0.00;;;0.00;;
8502;SDS011;4289;48.664;12.700;2022-10-23T02:25:17;0.00;;;0.00;;
8502;SDS011;4289;48.664;12.700;2022-10-23T02:28:42;0.00;;;0.00;;
8502;SDS011;4289;48.664;12.700;2022-10-23T02:32:07;0.10;;;0.10;;
8502;SDS011;4289;48.664;12.700;2022-10-23T02:35:31;0.10;;;0.10;;
8502;SDS011;4289;48.664;12.700;2022-10-23T02:38:55;0.00;;;0.00;;
8502;SDS011;4289;48.664;12.700;2022-10-23T02:42:18;0.10;;;0.10;;
8502;SDS011;4289;48.664;12.700;2022-10-23T02:45:43;0.10;;;0.10;;
8502;SDS011;4289;48.664;12.700;2022-10-23T02:49:10;0.10;;;0.10;;
8502;SDS011;4289;48.664;12.700;2022-10-23T02:52:36;0.10;;;0.10;;
8502;SDS011;4289;48.664;12.700;2022-10-23T02:56:03;0.10;;;0.10;;
8502;SDS011;4289;48.664;12.700;2022-10-23T02:59:29;0.10;;;0.10;;
8502;SDS011;4289;48.664;12.700;2022-10-23T03:02:56;0.10;;;0.10;;
8502;SDS011;4289;48.664;12.700;2022-10-23T03:06:19;0.20;;;0.20;;
8502;SDS011;4289;48.664;12.700;2022-10-23T03:09:43;0.20;;;0.20;;
8502;SDS011;4289;48.664;12.700;2022-10-23T03:13:06;0.20;;;0.20;;
8502;SDS011;4289;48.664;12.700;2022-10-23T03:16:29;0.20;;;0.20;;
8502;SDS011;4289;48.664;12.700;2022-10-23T03:19:51;0.10;;;0.10;;
8502;SDS011;4289;48.664;12.700;2022-10-23T03:23:14;0.10;;;0.10;;
8502;SDS011;4289;48.664;12.700;2022-10-23T03:26:36;0.20;;;0.20;;
8502;SDS011;4289;48.664;12.700;2022-10-23T03:30:00;0.20;;;0.20;;
8502;SDS011;4289;48.664;12.700;2022-10-23T03:33:22;0.10;;;0.10;;
8502;SDS011;4289;48.664;12.700;2022-10-23T03:36:45;0.13;;;0.13;;
8502;SDS011;4289;48.664;12.700;2022-10-23T03:40:07;0.20;;;0.20;;
8502;SDS011;4289;48.664;12.700;2022-10-23T03:43:30;0.27;;;0.27;;
8502;SDS011;4289;48.664;12.700;2022-10-23T03:46:54;0.20;;;0.20;;
8502;SDS011;4289;48.664;12.700;2022-10-23T03:50:17;0.10;;;0.10;;
8502;SDS011;4289;48.664;12.700;2022-10-23T03:53:39;0.20;;;0.20;;
8502;SDS011;4289;48.664;12.700;2022-10-23T03:57:02;0.20;;;0.20;;
8502;SDS011;4289;48.664;12.700;2022-10-23T04:00:24;0.20;;;0.20;;
8502;SDS011;4289;48.664;12.700;2022-10-23T04:03:48;0.10;;;0.10;;
8502;SDS011;4289;48.664;12.700;2022-10-23T04:07:10;0.10;;;0.10;;
8502;SDS011;4289;48.664;12.700;2022-10-23T04:10:33;0.20;;;0.20;;
8502;SDS011;4289;48.664;12.700;2022-10-23T04:13:55;0.20;;;0.20;;
8502;SDS011;4289;48.664;12.700;2022-10-23T04:17:17;0.10;;;0.10;;
8502;SDS011;4289;48.664;12.700;2022-10-23T04:20:41;0.20;;;0.20;;
8502;SDS011;4289;48.664;12.700;2022-10-23T04:24:03;0.10;;;0.10;;
8502;SDS011;4289;48.664;12.700;2022-10-23T04:27:29;0.20;;;0.20;;
8502;SDS011;4289;48.664;12.700;2022-10-23T04:30:51;0.10;;;0.10;;
8502;SDS011;4289;48.664;12.700;2022-10-23T04:34:14;0.10;;;0.10;;
8502;SDS011;4289;48.664;12.700;2022-10-23T04:37:37;0.10;;;0.10;;
8502;SDS011;4289;48.664;12.700;2022-10-23T04:40:59;0.27;;;0.27;;
8502;SDS011;4289;48.664;12.700;2022-10-23T04:44:22;0.30;;;0.30;;
8502;SDS011;4289;48.664;12.700;2022-10-23T04:47:44;0.30;;;0.30;;
8502;SDS011;4289;48.664;12.700;2022-10-23T04:51:07;0.20;;;0.20;;
8502;SDS011;4289;48.664;12.700;2022-10-23T04:54:35;0.20;;;0.20;;
8502;SDS011;4289;48.664;12.700;2022-10-23T04:57:57;0.20;;;0.20;;
8502;SDS011;4289;48.664;12.700;2022-10-23T05:01:20;0.20;;;0.20;;
8502;SDS011;4289;48.664;12.700;2022-10-23T05:04:42;0.20;;;0.20;;
8502;SDS011;4289;48.664;12.700;2022-10-23T05:08:04;0.23;;;0.23;;
8502;SDS011;4289;48.664;12.700;2022-10-23T05:11:28;0.30;;;0.30;;
8502;SDS011;4289;48.664;12.700;2022-10-23T05:14:50;0.10;;;0.10;;
8502;SDS011;4289;48.664;12.700;2022-10-23T05:18:14;0.20;;;0.20;;
8502;SDS011;4289;48.664;12.700;2022-10-23T05:21:39;0.20;;;0.20;;
8502;SDS011;4289;48.664;12.700;2022-10-23T05:25:02;0.10;;;0.10;;
8502;SDS011;4289;48.664;12.700;2022-10-23T05:28:26;0.20;;;0.20;;
8502;SDS011;4289;48.664;12.700;2022-10-23T05:31:49;0.20;;;0.20;;
8502;SDS011;4289;48.664;12.700;2022-10-23T05:35:16;0.20;;;0.20;;
8502;SDS011;4289;48.664;12.700;2022-10-23T05:38:39;0.20;;;0.20;;
8502;SDS011;4289;48.664;12.700;2022-10-23T05:42:02;0.20;;;0.20;;
8502;SDS011;4289;48.664;12.700;2022-10-23T05:45:26;0.20;;;0.20;;
8502;SDS011;4289;48.664;12.700;2022-10-23T05:48:48;0.20;;;0.20;;
8502;SDS011;4289;48.664;12.700;2022-10-23T05:52:11;0.30;;;0.30;;
8502;SDS011;4289;48.664;12.700;2022-10-23T05:55:33;0.20;;;0.20;;
8502;SDS011;4289;48.664;12.700;2022-10-23T05:58:56;0.20;;;0.20;;
8502;SDS011;4289;48.664;12.700;2022-10-23T06:02:19;0.10;;;0.10;;
8502;SDS011;4289;48.664;12.700;2022-10-23T06:05:47;0.10;;;0.10;;
8502;SDS011;4289;48.664;12.700;2022-10-23T06:09:10;0.10;;;0.10;;
8502;SDS011;4289;48.664;12.700;2022-10-23T06:12:32;0.10;;;0.10;;
8502;SDS011;4289;48.664;12.700;2022-10-23T06:15:54;0.20;;;0.20;;
8502;SDS011;4289;48.664;12.700;2022-10-23T06:19:18;0.10;;;0.10;;
8502;SDS011;4289;48.664;12.700;2022-10-23T06:22:41;0.10;;;0.10;;
8502;SDS011;4289;48.664;12.700;2022-10-23T06:26:03;0.10;;;0.10;;
8502;SDS011;4289;48.664;12.700;2022-10-23T06:29:26;0.20;;;0.20;;
8502;SDS011;4289;48.664;12.700;2022-10-23T06:32:49;0.10;;;0.10;;
8502;SDS011;4289;48.664;12.700;2022-10-23T06:36:13;0.10;;;0.10;;
8502;SDS011;4289;48.664;12.700;2022-10-23T06:39:35;0.10;;;0.10;;
8502;SDS011;4289;48.664;12.700;2022-10-23T06:42:59;0.10;;;0.10;;
8502;SDS011;4289;48.664;12.700;2022-10-23T06:46:21;0.10;;;0.10;;
8502;SDS011;4289;48.664;12.700;2022-10-23T06:49:45;0.10;;;0.10;;
8502;SDS011;4289;48.664;12.700;2022-10-23T06:53:09;0.10;;;0.10;;
8502;SDS011;4289;48.664;12.700;2022-10-23T06:56:31;0.10;;;0.10;;
8502;SDS011;4289;48.664;12.700;2022-10-23T06:59:54;0.10;;;0.10;;
8502;SDS011;4289;48.664;12.700;2022-10-23T07:03:16;0.10;;;0.10;;
8502;SDS011;4289;48.664;12.700;2022-10-23T07:06:38;0.10;;;0.10;;
8502;SDS011;4289;48.664;12.700;2022-10-23T07:10:03;0.10;;;0.10;;
8502;SDS011;4289;48.664;12.700;2022-10-23T07:13:26;0.10;;;0.10;;
8502;SDS011;4289;48.664;12.700;2022-10-23T07:16:48;0.10;;;0.10;;
8502;SDS011;4289;48.664;12.700;2022-10-23T07:20:10;0.10;;;0.10;;
8502;SDS011;4289;48.664;12.700;2022-10-23T07:23:33;0.03;;;0.03;;
8502;SDS011;4289;48.664;12.700;2022-10-23T07:26:57;0.00;;;0.00;;
8502;SDS011;4289;48.664;12.700;2022-10-23T07:30:19;0.03;;;0.03;;
8502;SDS011;4289;48.664;12.700;2022-10-23T07:33:41;0.00;;;0.00;;
8502;SDS011;4289;48.664;12.700;2022-10-23T07:37:04;0.10;;;0.10;;
8502;SDS011;4289;48.664;12.700;2022-10-23T07:40:26;0.00;;;0.00;;
8502;SDS011;4289;48.664;12.700;2022-10-23T07:43:51;0.07;;;0.07;;
8502;SDS011;4289;48.664;12.700;2022-10-23T07:47:13;0.00;;;0.00;;
8502;SDS011;4289;48.664;12.700;2022-10-23T07:50:36;0.00;;;0.00;;
8502;SDS011;4289;48.664;12.700;2022-10-23T07:54:00;0.10;;;0.10;;
8502;SDS011;4289;48.664;12.700;2022-10-23T07:57:23;0.00;;;0.00;;
8502;SDS011;4289;48.664;12.700;2022-10-23T08:00:47;0.03;;;0.03;;
8502;SDS011;4289;48.664;12.700;2022-10-23T08:04:14;0.00;;;0.00;;
8502;SDS011;4289;48.664;12.700;2022-10-23T08:07:38;0.03;;;0.03;;
8502;SDS011;4289;48.664;12.700;2022-10-23T08:11:01;0.00;;;0.00;;
8502;SDS011;4289;48.664;12.700;2022-10-23T08:14:23;0.00;;;0.00;;
8502;SDS011;4289;48.664;12.700;2022-10-23T08:17:47;0.00;;;0.00;;
8502;SDS011;4289;48.664;12.700;2022-10-23T08:21:10;0.00;;;0.00;;
8502;SDS011;4289;48.664;12.700;2022-10-23T08:24:33;0.05;;;0.05;;
8502;SDS011;4289;48.664;12.700;2022-10-23T08:27:56;0.10;;;0.10;;
8502;SDS011;4289;48.664;12.700;2022-10-23T08:31:19;0.00;;;0.00;;
8502;SDS011;4289;48.664;12.700;2022-10-23T08:34:43;0.03;;;0.03;;
8502;SDS011;4289;48.664;12.700;2022-10-23T08:42:21;0.00;;;0.00;;
8502;SDS011;4289;48.664;12.700;2022-10-23T08:45:49;0.00;;;0.00;;
8502;SDS011;4289;48.664;12.700;2022-10-23T08:49:38;0.00;;;0.00;;
8502;SDS011;4289;48.664;12.700;2022-10-23T08:53:10;0.05;;;0.05;;
8502;SDS011;4289;48.664;12.700;2022-10-23T08:56:47;0.00;;;0.00;;
8502;SDS011;4289;48.664;12.700;2022-10-23T09:00:27;0.00;;;0.00;;
8502;SDS011;4289;48.664;12.700;2022-10-23T09:04:10;0.00;;;0.00;;
8502;SDS011;4289;48.664;12.700;2022-10-23T09:07:37;0.00;;;0.00;;
8502;SDS011;4289;48.664;12.700;2022-10-23T09:11:05;0.00;;;0.00;;
8502;SDS011;4289;48.664;12.700;2022-10-23T09:14:41;0.00;;;0.00;;
8502;SDS011;4289;48.664;12.700;2022-10-23T09:18:35;0.00;;;0.00;;
8502;SDS011;4289;48.664;12.700;2022-10-23T09:21:58;0.00;;;0.00;;
8502;SDS011;4289;48.664;12.700;2022-10-23T09:25:21;0.10;;;0.10;;
8502;SDS011;4289;48.664;12.700;2022-10-23T09:28:47;0.10;;;0.10;;
8502;SDS011;4289;48.664;12.700;2022-10-23T09:32:10;0.00;;;0.00;;
8502;SDS011;4289;48.664;12.700;2022-10-23T09:35:34;0.00;;;0.00;;
8502;SDS011;4289;48.664;12.700;2022-10-23T09:38:56;0.00;;;0.00;;
8502;SDS011;4289;48.664;12.700;2022-10-23T09:42:20;0.00;;;0.00;;
8502;SDS011;4289;48.664;12.700;2022-10-23T09:45:54;0.00;;;0.00;;
8502;SDS011;4289;48.664;12.700;2022-10-23T09:49:18;0.00;;;0.00;;
8502;SDS011;4289;48.664;12.700;2022-10-23T09:52:42;0.10;;;0.10;;
8502;SDS011;4289;48.664;12.700;2022-10-23T09:56:05;0.10;;;0.10;;
8502;SDS011;4289;48.664;12.700;2022-10-23T09:59:34;0.10;;;0.10;;
8502;SDS011;4289;48.664;12.700;2022-10-23T10:02:58;0.00;;;0.00;;
8502;SDS011;4289;48.664;12.700;2022-10-23T10:06:22;0.00;;;0.00;;
8502;SDS011;4289;48.664;12.700;2022-10-23T10:09:46;0.00;;;0.00;;
8502;SDS011;4289;48.664;12.700;2022-10-23T10:13:12;0.10;;;0.10;;
8502;SDS011;4289;48.664;12.700;2022-10-23T10:16:43;0.08;;;0.08;;
8502;SDS011;4289;48.664;12.700;2022-10-23T10:24:14;0.00;;;0.00;;
8502;SDS011;4289;48.664;12.700;2022-10-23T10:27:43;0.10;;;0.10;;
8502;SDS011;4289;48.664;12.700;2022-10-23T10:31:11;0.10;;;0.10;;
8502;SDS011;4289;48.664;12.700;2022-10-23T10:34:40;0.10;;;0.10;;
8502;SDS011;4289;48.664;12.700;2022-10-23T10:38:16;0.00;;;0.00;;
8502;SDS011;4289;48.664;12.700;2022-10-23T10:45:32;0.00;;;0.00;;
8502;SDS011;4289;48.664;12.700;2022-10-23T10:48:58;0.00;;;0.00;;
8502;SDS011;4289;48.664;12.700;2022-10-23T10:52:24;0.05;;;0.05;;
8502;SDS011;4289;48.664;12.700;2022-10-23T10:55:49;0.00;;;0.00;;
8502;SDS011;4289;48.664;12.700;2022-10-23T10:59:15;0.00;;;0.00;;
8502;SDS011;4289;48.664;12.700;2022-10-23T11:02:41;0.10;;;0.10;;
8502;SDS011;4289;48.664;12.700;2022-10-23T11:06:08;0.10;;;0.10;;
8502;SDS011;4289;48.664;12.700;2022-10-23T11:09:33;0.00;;;0.00;;
8502;SDS011;4289;48.664;12.700;2022-10-23T11:12:56;0.10;;;0.10;;
8502;SDS011;4289;48.664;12.700;2022-10-23T11:16:21;0.10;;;0.10;;
8502;SDS011;4289;48.664;12.700;2022-10-23T11:19:46;0.10;;;0.10;;
8502;SDS011;4289;48.664;12.700;2022-10-23T11:23:21;0.10;;;0.10;;
8502;SDS011;4289;48.664;12.700;2022-10-23T11:27:01;0.00;;;0.00;;
8502;SDS011;4289;48.664;12.700;2022-10-23T11:30:41;0.10;;;0.10;;
8502;SDS011;4289;48.664;12.700;2022-10-23T11:34:38;0.00;;;0.00;;
8502;SDS011;4289;48.664;12.700;2022-10-23T11:38:13;0.00;;;0.00;;
8502;SDS011;4289;48.664;12.700;2022-10-23T11:41:45;0.00;;;0.00;;
8502;SDS011;4289;48.664;12.700;2022-10-23T11:45:24;0.00;;;0.00;;
8502;SDS011;4289;48.664;12.700;2022-10-23T11:48:52;0.10;;;0.10;;
8502;SDS011;4289;48.664;12.700;2022-10-23T11:52:21;0.00;;;0.00;;
8502;SDS011;4289;48.664;12.700;2022-10-23T11:56:00;0.00;;;0.00;;
8502;SDS011;4289;48.664;12.700;2022-10-23T11:59:26;0.00;;;0.00;;
8502;SDS011;4289;48.664;12.700;2022-10-23T12:02:51;0.10;;;0.10;;
8502;SDS011;4289;48.664;12.700;2022-10-23T12:06:18;0.00;;;0.00;;
8502;SDS011;4289;48.664;12.700;2022-10-23T12:09:44;0.00;;;0.00;;
8502;SDS011;4289;48.664;12.700;2022-10-23T12:13:25;0.00;;;0.00;;
8502;SDS011;4289;48.664;12.700;2022-10-23T12:16:49;0.00;;;0.00;;
8502;SDS011;4289;48.664;12.700;2022-10-23T12:20:20;0.00;;;0.00;;
8502;SDS011;4289;48.664;12.700;2022-10-23T12:27:44;0.10;;;0.10;;
8502;SDS011;4289;48.664;12.700;2022-10-23T12:31:15;0.10;;;0.10;;
8502;SDS011;4289;48.664;12.700;2022-10-23T12:34:44;0.00;;;0.00;;
8502;SDS011;4289;48.664;12.700;2022-10-23T12:38:12;0.00;;;0.00;;
8502;SDS011;4289;48.664;12.700;2022-10-23T12:41:35;0.00;;;0.00;;
8502;SDS011;4289;48.664;12.700;2022-10-23T12:45:01;0.00;;;0.00;;
8502;SDS011;4289;48.664;12.700;2022-10-23T12:48:26;0.00;;;0.00;;
8502;SDS011;4289;48.664;12.700;2022-10-23T12:51:53;0.00;;;0.00;;
8502;SDS011;4289;48.664;12.700;2022-10-23T12:55:16;0.00;;;0.00;;
8502;SDS011;4289;48.664;12.700;2022-10-23T12:58:38;0.00;;;0.00;;
8502;SDS011;4289;48.664;12.700;2022-10-23T13:02:16;0.00;;;0.00;;
8502;SDS011;4289;48.664;12.700;2022-10-23T13:05:43;0.00;;;0.00;;
8502;SDS011;4289;48.664;12.700;2022-10-23T13:09:05;0.10;;;0.10;;
8502;SDS011;4289;48.664;12.700;2022-10-23T13:12:35;0.00;;;0.00;;
8502;SDS011;4289;48.664;12.700;2022-10-23T13:16:00;0.00;;;0.00;;
8502;SDS011;4289;48.664;12.700;2022-10-23T13:19:23;0.00;;;0.00;;
8502;SDS011;4289;48.664;12.700;2022-10-23T13:22:47;0.00;;;0.00;;
8502;SDS011;4289;48.664;12.700;2022-10-23T13:26:22;0.10;;;0.10;;
8502;SDS011;4289;48.664;12.700;2022-10-23T13:29:48;0.00;;;0.00;;
8502;SDS011;4289;48.664;12.700;2022-10-23T13:33:17;0.10;;;0.10;;
8502;SDS011;4289;48.664;12.700;2022-10-23T13:36:51;0.00;;;0.00;;
8502;SDS011;4289;48.664;12.700;2022-10-23T13:40:19;0.00;;;0.00;;
8502;SDS011;4289;48.664;12.700;2022-10-23T13:43:44;0.10;;;0.10;;
8502;SDS011;4289;48.664;12.700;2022-10-23T13:47:09;0.00;;;0.00;;
8502;SDS011;4289;48.664;12.700;2022-10-23T13:50:33;0.00;;;0.00;;
8502;SDS011;4289;48.664;12.700;2022-10-23T13:53:56;0.00;;;0.00;;
8502;SDS011;4289;48.664;12.700;2022-10-23T13:57:19;0.00;;;0.00;;
8502;SDS011;4289;48.664;12.700;2022-10-23T14:00:41;0.00;;;0.00;;
8502;SDS011;4289;48.664;12.700;2022-10-23T14:04:04;0.00;;;0.00;;
8502;SDS011;4289;48.664;12.700;2022-10-23T14:07:27;0.00;;;0.00;;
8502;SDS011;4289;48.664;12.700;2022-10-23T14:10:51;0.10;;;0.10;;
8502;SDS011;4289;48.664;12.700;2022-10-23T14:14:13;0.00;;;0.00;;
8502;SDS011;4289;48.664;12.700;2022-10-23T14:17:36;0.03;;;0.03;;
8502;SDS011;4289;48.664;12.700;2022-10-23T14:20:58;0.08;;;0.08;;
8502;SDS011;4289;48.664;12.700;2022-10-23T14:24:21;0.00;;;0.00;;
8502;SDS011;4289;48.664;12.700;2022-10-23T14:27:44;0.00;;;0.00;;
8502;SDS011;4289;48.664;12.700;2022-10-23T14:31:07;0.00;;;0.00;;
8502;SDS011;4289;48.664;12.700;2022-10-23T14:34:31;0.00;;;0.00;;
8502;SDS011;4289;48.664;12.700;2022-10-23T14:37:54;0.00;;;0.00;;
8502;SDS011;4289;48.664;12.700;2022-10-23T14:41:17;0.00;;;0.00;;
8502;SDS011;4289;48.664;12.700;2022-10-23T14:44:41;0.00;;;0.00;;
8502;SDS011;4289;48.664;12.700;2022-10-23T14:48:03;0.00;;;0.00;;
8502;SDS011;4289;48.664;12.700;2022-10-23T14:51:26;0.00;;;0.00;;
8502;SDS011;4289;48.664;12.700;2022-10-23T14:54:50;0.00;;;0.00;;
8502;SDS011;4289;48.664;12.700;2022-10-23T14:58:13;0.00;;;0.00;;
8502;SDS011;4289;48.664;12.700;2022-10-23T15:01:38;0.00;;;0.00;;
8502;SDS011;4289;48.664;12.700;2022-10-23T15:05:02;0.00;;;0.00;;
8502;SDS011;4289;48.664;12.700;2022-10-23T15:08:25;0.00;;;0.00;;
8502;SDS011;4289;48.664;12.700;2022-10-23T15:11:47;0.00;;;0.00;;
8502;SDS011;4289;48.664;12.700;2022-10-23T15:15:10;0.00;;;0.00;;
8502;SDS011;4289;48.664;12.700;2022-10-23T15:18:34;0.00;;;0.00;;
8502;SDS011;4289;48.664;12.700;2022-10-23T15:21:57;0.00;;;0.00;;
8502;SDS011;4289;48.664;12.700;2022-10-23T15:25:19;0.00;;;0.00;;
8502;SDS011;4289;48.664;12.700;2022-10-23T15:28:42;0.00;;;0.00;;
8502;SDS011;4289;48.664;12.700;2022-10-23T15:32:04;0.03;;;0.03;;
8502;SDS011;4289;48.664;12.700;2022-10-23T15:35:28;0.00;;;0.00;;
8502;SDS011;4289;48.664;12.700;2022-10-23T15:38:51;0.05;;;0.05;;
8502;SDS011;4289;48.664;12.700;2022-10-23T15:42:13;0.00;;;0.00;;
8502;SDS011;4289;48.664;12.700;2022-10-23T15:45:37;0.00;;;0.00;;
8502;SDS011;4289;48.664;12.700;2022-10-23T15:49:00;0.00;;;0.00;;
8502;SDS011;4289;48.664;12.700;2022-10-23T15:52:24;0.00;;;0.00;;
8502;SDS011;4289;48.664;12.700;2022-10-23T15:55:46;0.00;;;0.00;;
8502;SDS011;4289;48.664;12.700;2022-10-23T15:59:08;0.00;;;0.00;;
8502;SDS011;4289;48.664;12.700;2022-10-23T16:02:30;0.00;;;0.00;;
8502;SDS011;4289;48.664;12.700;2022-10-23T16:05:53;0.00;;;0.00;;
8502;SDS011;4289;48.664;12.700;2022-10-23T16:09:16;0.00;;;0.00;;
8502;SDS011;4289;48.664;12.700;2022-10-23T16:12:39;0.00;;;0.00;;
8502;SDS011;4289;48.664;12.700;2022-10-23T16:16:01;0.00;;;0.00;;
8502;SDS011;4289;48.664;12.700;2022-10-23T16:19:24;0.00;;;0.00;;
8502;SDS011;4289;48.664;12.700;2022-10-23T16:22:46;0.00;;;0.00;;
8502;SDS011;4289;48.664;12.700;2022-10-23T16:26:10;0.00;;;0.00;;
8502;SDS011;4289;48.664;12.700;2022-10-23T16:29:32;0.00;;;0.00;;
8502;SDS011;4289;48.664;12.700;2022-10-23T16:32:55;0.00;;;0.00;;
8502;SDS011;4289;48.664;12.700;2022-10-23T16:36:18;0.00;;;0.00;;
8502;SDS011;4289;48.664;12.700;2022-10-23T16:39:40;0.00;;;0.00;;
8502;SDS011;4289;48.664;12.700;2022-10-23T16:43:04;0.00;;;0.00;;
8502;SDS011;4289;48.664;12.700;2022-10-23T16:46:26;0.00;;;0.00;;
8502;SDS011;4289;48.664;12.700;2022-10-23T16:49:48;0.00;;;0.00;;
8502;SDS011;4289;48.664;12.700;2022-10-23T16:53:11;0.00;;;0.00;;
8502;SDS011;4289;48.664;12.700;2022-10-23T16:56:33;0.05;;;0.05;;
8502;SDS011;4289;48.664;12.700;2022-10-23T16:59:57;0.00;;;0.00;;
8502;SDS011;4289;48.664;12.700;2022-10-23T17:03:19;0.00;;;0.00;;
8502;SDS011;4289;48.664;12.700;2022-10-23T17:06:41;0.00;;;0.00;;
8502;SDS011;4289;48.664;12.700;2022-10-23T17:10:04;0.00;;;0.00;;
8502;SDS011;4289;48.664;12.700;2022-10-23T17:13:27;0.00;;;0.00;;
8502;SDS011;4289;48.664;12.700;2022-10-23T17:16:51;0.00;;;0.00;;
8502;SDS011;4289;48.664;12.700;2022-10-23T17:20:13;0.00;;;0.00;;
8502;SDS011;4289;48.664;12.700;2022-10-23T17:23:35;0.00;;;0.00;;
8502;SDS011;4289;48.664;12.700;2022-10-23T17:26:58;0.00;;;0.00;;
8502;SDS011;4289;48.664;12.700;2022-10-23T17:30:20;0.00;;;0.00;;
8502;SDS011;4289;48.664;12.700;2022-10-23T17:33:44;0.00;;;0.00;;
8502;SDS011;4289;48.664;12.700;2022-10-23T17:37:08;0.00;;;0.00;;
8502;SDS011;4289;48.664;12.700;2022-10-23T17:40:32;0.00;;;0.00;;
8502;SDS011;4289;48.664;12.700;2022-10-23T17:43:54;0.00;;;0.00;;
8502;SDS011;4289;48.664;12.700;2022-10-23T17:47:17;0.00;;;0.00;;
8502;SDS011;4289;48.664;12.700;2022-10-23T17:50:41;0.00;;;0.00;;
8502;SDS011;4289;48.664;12.700;2022-10-23T17:54:04;0.00;;;0.00;;
8502;SDS011;4289;48.664;12.700;2022-10-23T17:57:27;0.00;;;0.00;;
8502;SDS011;4289;48.664;12.700;2022-10-23T18:00:49;0.00;;;0.00;;
8502;SDS011;4289;48.664;12.700;2022-10-23T18:04:14;0.00;;;0.00;;
8502;SDS011;4289;48.664;12.700;2022-10-23T18:07:38;0.00;;;0.00;;
8502;SDS011;4289;48.664;12.700;2022-10-23T18:11:00;0.00;;;0.00;;
8502;SDS011;4289;48.664;12.700;2022-10-23T18:14:24;0.00;;;0.00;;
8502;SDS011;4289;48.664;12.700;2022-10-23T18:17:46;0.00;;;0.00;;
8502;SDS011;4289;48.664;12.700;2022-10-23T18:21:09;0.00;;;0.00;;
8502;SDS011;4289;48.664;12.700;2022-10-23T18:24:33;0.00;;;0.00;;
8502;SDS011;4289;48.664;12.700;2022-10-23T18:27:57;0.00;;;0.00;;
8502;SDS011;4289;48.664;12.700;2022-10-23T18:31:19;0.00;;;0.00;;
8502;SDS011;4289;48.664;12.700;2022-10-23T18:34:44;0.00;;;0.00;;
8502;SDS011;4289;48.664;12.700;2022-10-23T18:38:06;0.00;;;0.00;;
8502;SDS011;4289;48.664;12.700;2022-10-23T18:41:32;0.00;;;0.00;;
8502;SDS011;4289;48.664;12.700;2022-10-23T18:44:55;0.00;;;0.00;;
8502;SDS011;4289;48.664;12.700;2022-10-23T18:48:18;0.00;;;0.00;;
8502;SDS011;4289;48.664;12.700;2022-10-23T18:51:40;0.00;;;0.00;;
8502;SDS011;4289;48.664;12.700;2022-10-23T18:55:03;0.10;;;0.10;;
8502;SDS011;4289;48.664;12.700;2022-10-23T18:58:27;0.00;;;0.00;;
8502;SDS011;4289;48.664;12.700;2022-10-23T19:01:49;0.00;;;0.00;;
8502;SDS011;4289;48.664;12.700;2022-10-23T19:05:12;0.00;;;0.00;;
8502;SDS011;4289;48.664;12.700;2022-10-23T19:08:34;0.00;;;0.00;;
8502;SDS011;4289;48.664;12.700;2022-10-23T19:11:57;0.00;;;0.00;;
8502;SDS011;4289;48.664;12.700;2022-10-23T19:15:22;0.00;;;0.00;;
8502;SDS011;4289;48.664;12.700;2022-10-23T19:18:45;0.00;;;0.00;;
8502;SDS011;4289;48.664;12.700;2022-10-23T19:22:11;0.00;;;0.00;;
8502;SDS011;4289;48.664;12.700;2022-10-23T19:25:33;0.08;;;0.08;;
8502;SDS011;4289;48.664;12.700;2022-10-23T19:28:56;0.00;;;0.00;;
8502;SDS011;4289;48.664;12.700;2022-10-23T19:32:21;0.00;;;0.00;;
8502;SDS011;4289;48.664;12.700;2022-10-23T19:35:43;0.10;;;0.10;;
8502;SDS011;4289;48.664;12.700;2022-10-23T19:39:06;0.00;;;0.00;;
8502;SDS011;4289;48.664;12.700;2022-10-23T19:42:28;0.00;;;0.00;;
8502;SDS011;4289;48.664;12.700;2022-10-23T19:45:50;0.10;;;0.10;;
8502;SDS011;4289;48.664;12.700;2022-10-23T19:49:14;0.00;;;0.00;;
8502;SDS011;4289;48.664;12.700;2022-10-23T19:52:37;0.10;;;0.10;;
8502;SDS011;4289;48.664;12.700;2022-10-23T19:56:02;0.03;;;0.03;;
8502;SDS011;4289;48.664;12.700;2022-10-23T19:59:26;0.10;;;0.10;;
8502;SDS011;4289;48.664;12.700;2022-10-23T20:02:48;0.00;;;0.00;;
8502;SDS011;4289;48.664;12.700;2022-10-23T20:06:13;0.10;;;0.10;;
8502;SDS011;4289;48.664;12.700;2022-10-23T20:09:37;0.00;;;0.00;;
8502;SDS011;4289;48.664;12.700;2022-10-23T20:13:00;0.00;;;0.00;;
8502;SDS011;4289;48.664;12.700;2022-10-23T20:16:23;0.00;;;0.00;;
8502;SDS011;4289;48.664;12.700;2022-10-23T20:19:47;0.00;;;0.00;;
8502;SDS011;4289;48.664;12.700;2022-10-23T20:23:13;0.00;;;0.00;;
8502;SDS011;4289;48.664;12.700;2022-10-23T20:26:37;0.00;;;0.00;;
8502;SDS011;4289;48.664;12.700;2022-10-23T20:30:00;0.00;;;0.00;;
8502;SDS011;4289;48.664;12.700;2022-10-23T20:33:22;0.00;;;0.00;;
8502;SDS011;4289;48.664;12.700;2022-10-23T20:36:47;0.00;;;0.00;;
8502;SDS011;4289;48.664;12.700;2022-10-23T20:40:11;0.00;;;0.00;;
8502;SDS011;4289;48.664;12.700;2022-10-23T20:43:33;0.00;;;0.00;;
8502;SDS011;4289;48.664;12.700;2022-10-23T20:46:56;0.00;;;0.00;;
8502;SDS011;4289;48.664;12.700;2022-10-23T20:50:18;0.00;;;0.00;;
8502;SDS011;4289;48.664;12.700;2022-10-23T20:53:43;0.00;;;0.00;;
8502;SDS011;4289;48.664;12.700;2022-10-23T20:57:07;0.00;;;0.00;;
8502;SDS011;4289;48.664;12.700;2022-10-23T21:00:29;0.00;;;0.00;;
8502;SDS011;4289;48.664;12.700;2022-10-23T21:03:52;0.08;;;0.08;;
8502;SDS011;4289;48.664;12.700;2022-10-23T21:07:16;0.00;;;0.00;;
8502;SDS011;4289;48.664;12.700;2022-10-23T21:10:43;0.00;;;0.00;;
8502;SDS011;4289;48.664;12.700;2022-10-23T21:14:07;0.05;;;0.05;;